ROK weather

Rockhampton Airport
Rockhampton, Queensland, Australia

Public forecast

Using degrees Celsius for public forecast. Weather courtesy of forecast.io.

METAR (pilot weather report)

Retrieved 2017/06/28 04:30 UTC (16 minutes ago):

YBRK 280430Z 08011KT 9999 FEW045 SCT280 24/14 Q1020 RF00.0/000.0

TAF (pilot weather forecast)

Forecast is more than 12 hours old.

Retrieved 2017/06/27 00:36 UTC (1 day ago):

TAF YBRK 272325Z 2800/2824 11008KT 9999 SCT030 FM280100 07008KT 9999 SCT040 FM280900 14005KT 9999 SCT030 SCT040